sensor_id;sensor_type;location;lat;lon;timestamp;pressure;altitude;pressure_sealevel;temperature;humidity
62800;BME280;48842;51.046;13.796;2023-11-21T00:02:20;99661.50;;;12.24;nan
62800;BME280;48842;51.046;13.796;2023-11-21T00:04:45;99661.50;;;12.24;nan
62800;BME280;48842;51.046;13.796;2023-11-21T00:07:11;99673.78;;;12.22;nan
62800;BME280;48842;51.046;13.796;2023-11-21T00:09:36;99660.66;;;12.22;nan
62800;BME280;48842;51.046;13.796;2023-11-21T00:12:02;99661.50;;;12.24;nan
62800;BME280;48842;51.046;13.796;2023-11-21T00:14:27;99664.97;;;12.26;nan
62800;BME280;48842;51.046;13.796;2023-11-21T00:16:52;99663.22;;;12.28;nan
62800;BME280;48842;51.046;13.796;2023-11-21T00:19:18;99661.41;;;12.32;nan
62800;BME280;48842;51.046;13.796;2023-11-21T00:21:43;99670.13;;;12.32;nan
62800;BME280;48842;51.046;13.796;2023-11-21T00:24:10;99669.28;;;12.32;nan
62800;BME280;48842;51.046;13.796;2023-11-21T00:26:35;99670.16;;;12.31;nan
62800;BME280;48842;51.046;13.796;2023-11-21T00:29:03;99669.19;;;12.36;nan
62800;BME280;48842;51.046;13.796;2023-11-21T00:31:28;99667.41;;;12.42;nan
62800;BME280;48842;51.046;13.796;2023-11-21T00:33:54;99670.84;;;12.45;nan
62800;BME280;48842;51.046;13.796;2023-11-21T00:36:19;99670.81;;;12.47;nan
62800;BME280;48842;51.046;13.796;2023-11-21T00:38:45;99675.19;;;12.46;nan
62800;BME280;48842;51.046;13.796;2023-11-21T00:41:10;99673.44;;;12.47;nan
62800;BME280;48842;51.046;13.796;2023-11-21T00:43:35;99677.84;;;12.46;nan
62800;BME280;48842;51.046;13.796;2023-11-21T00:46:04;99674.34;;;12.46;nan
62800;BME280;48842;51.046;13.796;2023-11-21T00:48:30;99675.22;;;12.45;nan
62800;BME280;48842;51.046;13.796;2023-11-21T00:50:55;99682.22;;;12.46;nan
62800;BME280;48842;51.046;13.796;2023-11-21T00:53:21;99687.44;;;12.49;nan
62800;BME280;48842;51.046;13.796;2023-11-21T00:55:46;99691.78;;;12.48;nan
62800;BME280;48842;51.046;13.796;2023-11-21T00:58:12;99679.53;;;12.50;nan
62800;BME280;48842;51.046;13.796;2023-11-21T01:00:37;99687.41;;;12.50;nan
62800;BME280;48842;51.046;13.796;2023-11-21T01:03:04;99685.63;;;12.51;nan
62800;BME280;48842;51.046;13.796;2023-11-21T01:05:30;99684.75;;;12.52;nan
62800;BME280;48842;51.046;13.796;2023-11-21T01:07:55;99685.63;;;12.51;nan
62800;BME280;48842;51.046;13.796;2023-11-21T01:10:20;99696.16;;;12.51;nan
62800;BME280;48842;51.046;13.796;2023-11-21T01:12:45;99697.03;;;12.51;nan
62800;BME280;48842;51.046;13.796;2023-11-21T01:15:11;99693.47;;;12.54;nan
62800;BME280;48842;51.046;13.796;2023-11-21T01:17:37;99689.97;;;12.55;nan
62800;BME280;48842;51.046;13.796;2023-11-21T01:20:04;99691.75;;;12.53;nan
62800;BME280;48842;51.046;13.796;2023-11-21T01:22:35;99697.88;;;12.52;nan
62800;BME280;48842;51.046;13.796;2023-11-21T01:25:01;99696.16;;;12.51;nan
62800;BME280;48842;51.046;13.796;2023-11-21T01:27:29;99699.63;;;12.53;nan
62800;BME280;48842;51.046;13.796;2023-11-21T01:29:54;99704.88;;;12.53;nan
62800;BME280;48842;51.046;13.796;2023-11-21T01:32:19;99704.88;;;12.53;nan
62800;BME280;48842;51.046;13.796;2023-11-21T01:34:45;99698.75;;;12.52;nan
62800;BME280;48842;51.046;13.796;2023-11-21T01:37:10;99691.78;;;12.51;nan
62800;BME280;48842;51.046;13.796;2023-11-21T01:39:37;99693.50;;;12.52;nan
62800;BME280;48842;51.046;13.796;2023-11-21T01:42:04;99697.88;;;12.52;nan
62800;BME280;48842;51.046;13.796;2023-11-21T01:44:30;99689.16;;;12.51;nan
62800;BME280;48842;51.046;13.796;2023-11-21T01:46:56;99695.28;;;12.50;nan
62800;BME280;48842;51.046;13.796;2023-11-21T01:49:22;99698.78;;;12.51;nan
62800;BME280;48842;51.046;13.796;2023-11-21T01:51:49;99700.53;;;12.50;nan
62800;BME280;48842;51.046;13.796;2023-11-21T01:54:17;99700.50;;;12.53;nan
62800;BME280;48842;51.046;13.796;2023-11-21T01:56:45;99698.69;;;12.55;nan
62800;BME280;48842;51.046;13.796;2023-11-21T01:59:12;99706.56;;;12.57;nan
62800;BME280;48842;51.046;13.796;2023-11-21T02:01:39;99701.28;;;12.58;nan
62800;BME280;48842;51.046;13.796;2023-11-21T02:04:04;99697.84;;;12.55;nan
62800;BME280;48842;51.046;13.796;2023-11-21T02:06:29;99697.84;;;12.55;nan
62800;BME280;48842;51.046;13.796;2023-11-21T02:08:56;99694.34;;;12.56;nan
62800;BME280;48842;51.046;13.796;2023-11-21T02:11:21;99704.78;;;12.59;nan
62800;BME280;48842;51.046;13.796;2023-11-21T02:13:46;99690.78;;;12.57;nan
62800;BME280;48842;51.046;13.796;2023-11-21T02:16:12;99703.09;;;12.55;nan
62800;BME280;48842;51.046;13.796;2023-11-21T02:18:38;99708.31;;;12.56;nan
62800;BME280;48842;51.046;13.796;2023-11-21T02:21:04;99710.06;;;12.59;nan
62800;BME280;48842;51.046;13.796;2023-11-21T02:23:29;99710.94;;;12.56;nan
62800;BME280;48842;51.046;13.796;2023-11-21T02:25:55;99709.22;;;12.55;nan
62800;BME280;48842;51.046;13.796;2023-11-21T02:28:20;99715.34;;;12.56;nan
62800;BME280;48842;51.046;13.796;2023-11-21T02:30:51;99711.81;;;12.57;nan
62800;BME280;48842;51.046;13.796;2023-11-21T02:33:20;99698.69;;;12.57;nan
62800;BME280;48842;51.046;13.796;2023-11-21T02:35:46;99711.81;;;12.57;nan
62800;BME280;48842;51.046;13.796;2023-11-21T02:38:11;99710.94;;;12.56;nan
62800;BME280;48842;51.046;13.796;2023-11-21T02:40:37;99707.47;;;12.56;nan
62800;BME280;48842;51.046;13.796;2023-11-21T02:43:02;99710.09;;;12.56;nan
62800;BME280;48842;51.046;13.796;2023-11-21T02:45:27;99713.59;;;12.56;nan
62800;BME280;48842;51.046;13.796;2023-11-21T02:47:53;99712.78;;;12.53;nan
62800;BME280;48842;51.046;13.796;2023-11-21T02:50:18;99715.41;;;12.53;nan
62800;BME280;48842;51.046;13.796;2023-11-21T02:52:44;99721.56;;;12.50;nan
62800;BME280;48842;51.046;13.796;2023-11-21T02:55:09;99721.63;;;12.46;nan
62800;BME280;48842;51.046;13.796;2023-11-21T02:57:34;99721.69;;;12.39;nan
62800;BME280;48842;51.046;13.796;2023-11-21T03:00:00;99718.28;;;12.33;nan
62800;BME280;48842;51.046;13.796;2023-11-21T03:02:26;99722.69;;;12.29;nan
62800;BME280;48842;51.046;13.796;2023-11-21T03:04:51;99716.69;;;12.21;nan
62800;BME280;48842;51.046;13.796;2023-11-21T03:07:16;99728.13;;;12.17;nan
62800;BME280;48842;51.046;13.796;2023-11-21T03:09:44;99725.56;;;12.12;nan
62800;BME280;48842;51.046;13.796;2023-11-21T03:12:10;99725.63;;;12.08;nan
62800;BME280;48842;51.046;13.796;2023-11-21T03:14:37;99721.25;;;12.07;nan
62800;BME280;48842;51.046;13.796;2023-11-21T03:17:02;99730.97;;;11.98;nan
62800;BME280;48842;51.046;13.796;2023-11-21T03:19:30;99731.88;;;11.97;nan
62800;BME280;48842;51.046;13.796;2023-11-21T03:21:55;99732.78;;;11.95;nan
62800;BME280;48842;51.046;13.796;2023-11-21T03:24:20;99740.66;;;11.93;nan
62800;BME280;48842;51.046;13.796;2023-11-21T03:26:47;99735.41;;;11.95;nan
62800;BME280;48842;51.046;13.796;2023-11-21T03:29:12;99731.88;;;11.94;nan
62800;BME280;48842;51.046;13.796;2023-11-21T03:31:38;99739.75;;;11.93;nan
62800;BME280;48842;51.046;13.796;2023-11-21T03:34:04;99737.16;;;11.90;nan
62800;BME280;48842;51.046;13.796;2023-11-21T03:36:29;99738.06;;;11.88;nan
62800;BME280;48842;51.046;13.796;2023-11-21T03:38:54;99739.81;;;11.88;nan
62800;BME280;48842;51.046;13.796;2023-11-21T03:41:20;99737.19;;;11.88;nan
62800;BME280;48842;51.046;13.796;2023-11-21T03:43:46;99745.97;;;11.84;nan
62800;BME280;48842;51.046;13.796;2023-11-21T03:46:11;99744.28;;;11.80;nan
62800;BME280;48842;51.046;13.796;2023-11-21T03:48:37;99735.56;;;11.75;nan
62800;BME280;48842;51.046;13.796;2023-11-21T03:51:02;99746.94;;;11.74;nan
62800;BME280;48842;51.046;13.796;2023-11-21T03:53:28;99747.84;;;11.73;nan
62800;BME280;48842;51.046;13.796;2023-11-21T03:55:54;99752.22;;;11.72;nan
62800;BME280;48842;51.046;13.796;2023-11-21T03:58:19;99746.16;;;11.68;nan
62800;BME280;48842;51.046;13.796;2023-11-21T04:00:44;99746.19;;;11.65;nan
62800;BME280;48842;51.046;13.796;2023-11-21T04:03:11;99748.81;;;11.64;nan
62800;BME280;48842;51.046;13.796;2023-11-21T04:05:36;99751.47;;;11.62;nan
62800;BME280;48842;51.046;13.796;2023-11-21T04:08:01;99743.56;;;11.64;nan
62800;BME280;48842;51.046;13.796;2023-11-21T04:10:26;99750.53;;;11.66;nan
62800;BME280;48842;51.046;13.796;2023-11-21T04:12:52;99747.03;;;11.67;nan
62800;BME280;48842;51.046;13.796;2023-11-21T04:15:17;99749.66;;;11.67;nan
62800;BME280;48842;51.046;13.796;2023-11-21T04:17:42;99752.25;;;11.69;nan
62800;BME280;48842;51.046;13.796;2023-11-21T04:20:08;99752.22;;;11.72;nan
62800;BME280;48842;51.046;13.796;2023-11-21T04:22:42;99752.19;;;11.75;nan
62800;BME280;48842;51.046;13.796;2023-11-21T04:25:14;99755.69;;;11.76;nan
62800;BME280;48842;51.046;13.796;2023-11-21T04:27:40;99754.78;;;11.80;nan
62800;BME280;48842;51.046;13.796;2023-11-21T04:30:06;99757.38;;;11.81;nan
62800;BME280;48842;51.046;13.796;2023-11-21T04:32:33;99761.75;;;11.81;nan
62800;BME280;48842;51.046;13.796;2023-11-21T04:34:58;99758.25;;;11.82;nan
62800;BME280;48842;51.046;13.796;2023-11-21T04:37:23;99762.63;;;11.81;nan
62800;BME280;48842;51.046;13.796;2023-11-21T04:39:49;99768.75;;;11.82;nan
62800;BME280;48842;51.046;13.796;2023-11-21T04:42:14;99761.75;;;11.81;nan
62800;BME280;48842;51.046;13.796;2023-11-21T04:44:39;99771.38;;;11.80;nan
62800;BME280;48842;51.046;13.796;2023-11-21T04:47:06;99785.34;;;11.81;nan
62800;BME280;48842;51.046;13.796;2023-11-21T04:49:31;99781.88;;;11.80;nan
62800;BME280;48842;51.046;13.796;2023-11-21T04:51:57;99786.25;;;11.80;nan
62800;BME280;48842;51.046;13.796;2023-11-21T04:54:22;99786.25;;;11.80;nan
62800;BME280;48842;51.046;13.796;2023-11-21T04:56:48;99782.72;;;11.81;nan
62800;BME280;48842;51.046;13.796;2023-11-21T04:59:13;99791.50;;;11.80;nan
62800;BME280;48842;51.046;13.796;2023-11-21T05:01:38;99782.78;;;11.78;nan
62800;BME280;48842;51.046;13.796;2023-11-21T05:04:04;99787.16;;;11.79;nan
62800;BME280;48842;51.046;13.796;2023-11-21T05:06:31;99784.53;;;11.79;nan
62800;BME280;48842;51.046;13.796;2023-11-21T05:08:56;99790.63;;;11.79;nan
62800;BME280;48842;51.046;13.796;2023-11-21T05:11:28;99790.63;;;11.79;nan
62800;BME280;48842;51.046;13.796;2023-11-21T05:13:54;99789.75;;;11.80;nan
62800;BME280;48842;51.046;13.796;2023-11-21T05:16:21;99792.38;;;11.79;nan
62800;BME280;48842;51.046;13.796;2023-11-21T05:18:46;99797.63;;;11.80;nan
62800;BME280;48842;51.046;13.796;2023-11-21T05:21:12;99805.47;;;11.83;nan
62800;BME280;48842;51.046;13.796;2023-11-21T05:23:37;99808.94;;;11.84;nan
62800;BME280;48842;51.046;13.796;2023-11-21T05:26:03;99808.94;;;11.84;nan
62800;BME280;48842;51.046;13.796;2023-11-21T05:28:28;99810.69;;;11.85;nan
62800;BME280;48842;51.046;13.796;2023-11-21T05:30:53;99812.41;;;11.89;nan
62800;BME280;48842;51.046;13.796;2023-11-21T05:33:19;99817.69;;;11.86;nan
62800;BME280;48842;51.046;13.796;2023-11-21T05:35:44;99812.44;;;11.86;nan
62800;BME280;48842;51.046;13.796;2023-11-21T05:38:09;99813.31;;;11.85;nan
62800;BME280;48842;51.046;13.796;2023-11-21T05:40:34;99820.31;;;11.84;nan
62800;BME280;48842;51.046;13.796;2023-11-21T05:43:00;99817.69;;;11.86;nan
62800;BME280;48842;51.046;13.796;2023-11-21T05:45:25;99812.44;;;11.86;nan
62800;BME280;48842;51.046;13.796;2023-11-21T05:47:50;99811.53;;;11.85;nan
62800;BME280;48842;51.046;13.796;2023-11-21T05:50:16;99818.59;;;11.83;nan
62800;BME280;48842;51.046;13.796;2023-11-21T05:52:44;99819.44;;;11.84;nan
62800;BME280;48842;51.046;13.796;2023-11-21T05:55:11;99812.47;;;11.83;nan
62800;BME280;48842;51.046;13.796;2023-11-21T05:57:38;99815.97;;;11.82;nan
62800;BME280;48842;51.046;13.796;2023-11-21T06:00:05;99818.59;;;11.82;nan
62800;BME280;48842;51.046;13.796;2023-11-21T06:02:43;99828.22;;;11.81;nan
62800;BME280;48842;51.046;13.796;2023-11-21T06:05:09;99830.88;;;11.80;nan
62800;BME280;48842;51.046;13.796;2023-11-21T06:07:34;99817.75;;;11.77;nan
62800;BME280;48842;51.046;13.796;2023-11-21T06:10:01;99824.81;;;11.73;nan
62800;BME280;48842;51.046;13.796;2023-11-21T06:12:28;99827.47;;;11.70;nan
62800;BME280;48842;51.046;13.796;2023-11-21T06:14:53;99833.59;;;11.67;nan
62800;BME280;48842;51.046;13.796;2023-11-21T06:17:18;99837.09;;;11.66;nan
62800;BME280;48842;51.046;13.796;2023-11-21T06:19:44;99842.34;;;11.66;nan
62800;BME280;48842;51.046;13.796;2023-11-21T06:22:10;99845.84;;;11.68;nan
62800;BME280;48842;51.046;13.796;2023-11-21T06:24:35;99837.06;;;11.71;nan
62800;BME280;48842;51.046;13.796;2023-11-21T06:27:03;99841.41;;;11.74;nan
62800;BME280;48842;51.046;13.796;2023-11-21T06:29:29;99849.25;;;11.75;nan
62800;BME280;48842;51.046;13.796;2023-11-21T06:31:55;99847.50;;;11.77;nan
62800;BME280;48842;51.046;13.796;2023-11-21T06:34:20;99854.50;;;11.80;nan
62800;BME280;48842;51.046;13.796;2023-11-21T06:36:46;99852.72;;;11.80;nan
62800;BME280;48842;51.046;13.796;2023-11-21T06:39:11;99857.09;;;11.83;nan
62800;BME280;48842;51.046;13.796;2023-11-21T06:41:37;99860.50;;;11.90;nan
62800;BME280;48842;51.046;13.796;2023-11-21T06:44:04;99864.03;;;11.93;nan
62800;BME280;48842;51.046;13.796;2023-11-21T06:46:29;99863.09;;;11.91;nan
62800;BME280;48842;51.046;13.796;2023-11-21T06:48:55;99869.28;;;11.90;nan
62800;BME280;48842;51.046;13.796;2023-11-21T06:51:20;99856.16;;;11.90;nan
62800;BME280;48842;51.046;13.796;2023-11-21T06:53:46;99859.66;;;11.87;nan
62800;BME280;48842;51.046;13.796;2023-11-21T06:56:17;99857.03;;;11.87;nan
62800;BME280;48842;51.046;13.796;2023-11-21T06:58:44;99864.91;;;11.87;nan
62800;BME280;48842;51.046;13.796;2023-11-21T07:01:10;99870.16;;;11.86;nan
62800;BME280;48842;51.046;13.796;2023-11-21T07:03:36;99862.28;;;11.87;nan
62800;BME280;48842;51.046;13.796;2023-11-21T07:06:02;99864.03;;;11.88;nan
62800;BME280;48842;51.046;13.796;2023-11-21T07:08:28;99867.50;;;11.89;nan
62800;BME280;48842;51.046;13.796;2023-11-21T07:10:53;99865.75;;;11.88;nan
62800;BME280;48842;51.046;13.796;2023-11-21T07:13:18;99871.00;;;11.88;nan
62800;BME280;48842;51.046;13.796;2023-11-21T07:15:43;99875.38;;;11.89;nan
62800;BME280;48842;51.046;13.796;2023-11-21T07:18:09;99878.00;;;11.89;nan
62800;BME280;48842;51.046;13.796;2023-11-21T07:20:34;99879.75;;;11.87;nan
62800;BME280;48842;51.046;13.796;2023-11-21T07:22:59;99881.53;;;11.86;nan
62800;BME280;48842;51.046;13.796;2023-11-21T07:25:25;99881.53;;;11.86;nan
62800;BME280;48842;51.046;13.796;2023-11-21T07:27:51;99880.63;;;11.91;nan
62800;BME280;48842;51.046;13.796;2023-11-21T07:30:16;99886.72;;;11.94;nan
62800;BME280;48842;51.046;13.796;2023-11-21T07:32:42;99891.13;;;11.94;nan
62800;BME280;48842;51.046;13.796;2023-11-21T07:35:08;99897.22;;;11.96;nan
62800;BME280;48842;51.046;13.796;2023-11-21T07:37:33;99895.44;;;12.01;nan
62800;BME280;48842;51.046;13.796;2023-11-21T07:39:58;99896.25;;;12.04;nan
62800;BME280;48842;51.046;13.796;2023-11-21T07:42:24;99904.13;;;12.06;nan
62800;BME280;48842;51.046;13.796;2023-11-21T07:44:52;99894.53;;;12.05;nan
62800;BME280;48842;51.046;13.796;2023-11-21T07:47:17;99899.78;;;12.03;nan
62800;BME280;48842;51.046;13.796;2023-11-21T07:49:42;99901.50;;;12.04;nan
62800;BME280;48842;51.046;13.796;2023-11-21T07:52:09;99901.47;;;12.11;nan
62800;BME280;48842;51.046;13.796;2023-11-21T07:54:34;99914.53;;;12.18;nan
62800;BME280;48842;51.046;13.796;2023-11-21T07:57:01;99912.72;;;12.25;nan
62800;BME280;48842;51.046;13.796;2023-11-21T07:59:26;99910.88;;;12.33;nan
62800;BME280;48842;51.046;13.796;2023-11-21T08:01:51;99908.19;;;12.38;nan
62800;BME280;48842;51.046;13.796;2023-11-21T08:04:16;99909.97;;;12.37;nan
62800;BME280;48842;51.046;13.796;2023-11-21T08:06:42;99913.50;;;12.33;nan
62800;BME280;48842;51.046;13.796;2023-11-21T08:09:07;99917.03;;;12.29;nan
62800;BME280;48842;51.046;13.796;2023-11-21T08:11:33;99910.09;;;12.25;nan
62800;BME280;48842;51.046;13.796;2023-11-21T08:13:58;99918.88;;;12.21;nan
62800;BME280;48842;51.046;13.796;2023-11-21T08:16:25;99915.34;;;12.22;nan
62800;BME280;48842;51.046;13.796;2023-11-21T08:18:50;99920.59;;;12.25;nan
62800;BME280;48842;51.046;13.796;2023-11-21T08:21:16;99918.81;;;12.29;nan
62800;BME280;48842;51.046;13.796;2023-11-21T08:23:41;99911.78;;;12.28;nan
62800;BME280;48842;51.046;13.796;2023-11-21T08:26:07;99923.22;;;12.23;nan
62800;BME280;48842;51.046;13.796;2023-11-21T08:28:33;99921.56;;;12.13;nan
62800;BME280;48842;51.046;13.796;2023-11-21T08:31:00;99923.38;;;12.07;nan
62800;BME280;48842;51.046;13.796;2023-11-21T08:33:26;99925.13;;;12.04;nan
62800;BME280;48842;51.046;13.796;2023-11-21T08:35:51;99926.03;;;12.03;nan
62800;BME280;48842;51.046;13.796;2023-11-21T08:38:16;99930.41;;;12.03;nan
62800;BME280;48842;51.046;13.796;2023-11-21T08:40:42;99933.06;;;11.98;nan
62800;BME280;48842;51.046;13.796;2023-11-21T08:43:08;99927.84;;;11.95;nan
62800;BME280;48842;51.046;13.796;2023-11-21T08:45:33;99924.34;;;11.96;nan
62800;BME280;48842;51.046;13.796;2023-11-21T08:47:59;99929.63;;;11.93;nan
62800;BME280;48842;51.046;13.796;2023-11-21T08:50:25;99930.47;;;11.95;nan
62800;BME280;48842;51.046;13.796;2023-11-21T08:52:50;99933.09;;;11.97;nan
62800;BME280;48842;51.046;13.796;2023-11-21T08:55:16;99940.97;;;11.97;nan
62800;BME280;48842;51.046;13.796;2023-11-21T08:57:44;99940.09;;;11.96;nan
62800;BME280;48842;51.046;13.796;2023-11-21T09:00:10;99929.59;;;11.96;nan
62800;BME280;48842;51.046;13.796;2023-11-21T09:02:43;99933.97;;;11.94;nan
62800;BME280;48842;51.046;13.796;2023-11-21T09:05:09;99936.59;;;11.91;nan
62800;BME280;48842;51.046;13.796;2023-11-21T09:07:35;99938.41;;;11.86;nan
62800;BME280;48842;51.046;13.796;2023-11-21T09:10:02;99948.97;;;11.80;nan
62800;BME280;48842;51.046;13.796;2023-11-21T09:12:27;99955.97;;;11.75;nan
62800;BME280;48842;51.046;13.796;2023-11-21T09:14:53;99952.53;;;11.65;nan
62800;BME280;48842;51.046;13.796;2023-11-21T09:17:18;99958.69;;;11.59;nan
62800;BME280;48842;51.046;13.796;2023-11-21T09:19:44;99957.88;;;11.54;nan
62800;BME280;48842;51.046;13.796;2023-11-21T09:22:12;99960.53;;;11.48;nan
62800;BME280;48842;51.046;13.796;2023-11-21T09:24:37;99961.44;;;11.41;nan
62800;BME280;48842;51.046;13.796;2023-11-21T09:27:03;99976.31;;;11.37;nan
62800;BME280;48842;51.046;13.796;2023-11-21T09:29:29;99977.19;;;11.38;nan
62800;BME280;48842;51.046;13.796;2023-11-21T09:31:55;99971.94;;;11.39;nan
62800;BME280;48842;51.046;13.796;2023-11-21T09:34:21;99968.41;;;11.40;nan
62800;BME280;48842;51.046;13.796;2023-11-21T09:36:47;99971.94;;;11.34;nan
62800;BME280;48842;51.046;13.796;2023-11-21T09:39:13;99971.94;;;11.34;nan
62800;BME280;48842;51.046;13.796;2023-11-21T09:41:57;99971.97;;;11.38;nan
62800;BME280;48842;51.046;13.796;2023-11-21T09:44:46;99974.59;;;11.36;nan
62800;BME280;48842;51.046;13.796;2023-11-21T09:47:15;99975.44;;;11.37;nan
62800;BME280;48842;51.046;13.796;2023-11-21T09:49:43;99982.44;;;11.31;nan
62800;BME280;48842;51.046;13.796;2023-11-21T09:52:20;99988.63;;;11.27;nan
62800;BME280;48842;51.046;13.796;2023-11-21T09:54:47;99990.38;;;11.24;nan
62800;BME280;48842;51.046;13.796;2023-11-21T09:57:14;99998.28;;;11.13;nan
62800;BME280;48842;51.046;13.796;2023-11-21T09:59:40;99998.28;;;11.07;nan
62800;BME280;48842;51.046;13.796;2023-11-21T10:02:07;100009.69;;;11.04;nan
62800;BME280;48842;51.046;13.796;2023-11-21T10:04:32;100014.03;;;11.04;nan
62800;BME280;48842;51.046;13.796;2023-11-21T10:06:57;100021.06;;;10.95;nan
62800;BME280;48842;51.046;13.796;2023-11-21T10:09:24;100029.81;;;10.88;nan
62800;BME280;48842;51.046;13.796;2023-11-21T10:11:52;100022.84;;;10.72;nan
62800;BME280;48842;51.046;13.796;2023-11-21T10:14:18;100029.84;;;10.67;nan
62800;BME280;48842;51.046;13.796;2023-11-21T10:16:48;100026.34;;;10.58;nan
62800;BME280;48842;51.046;13.796;2023-11-21T10:19:14;100029.88;;;10.54;nan
62800;BME280;48842;51.046;13.796;2023-11-21T10:21:41;100035.09;;;10.48;nan
62800;BME280;48842;51.046;13.796;2023-11-21T10:24:07;100032.47;;;10.46;nan
62800;BME280;48842;51.046;13.796;2023-11-21T10:26:32;100045.59;;;10.42;nan
62800;BME280;48842;51.046;13.796;2023-11-21T10:28:59;100049.91;;;10.30;nan
62800;BME280;48842;51.046;13.796;2023-11-21T10:31:27;100049.91;;;10.24;nan
62800;BME280;48842;51.046;13.796;2023-11-21T10:33:52;100045.53;;;10.23;nan
62800;BME280;48842;51.046;13.796;2023-11-21T10:36:27;100055.16;;;10.20;nan
62800;BME280;48842;51.046;13.796;2023-11-21T10:38:53;100056.00;;;10.19;nan
62800;BME280;48842;51.046;13.796;2023-11-21T10:41:19;100067.34;;;10.16;nan
62800;BME280;48842;51.046;13.796;2023-11-21T10:43:45;100070.81;;;10.07;nan
62800;BME280;48842;51.046;13.796;2023-11-21T10:46:10;100083.03;;;9.96;nan
62800;BME280;48842;51.046;13.796;2023-11-21T10:48:35;100078.66;;;9.90;nan
62800;BME280;48842;51.046;13.796;2023-11-21T10:51:06;100076.91;;;9.88;nan
62800;BME280;48842;51.046;13.796;2023-11-21T10:53:32;100084.75;;;9.91;nan
62800;BME280;48842;51.046;13.796;2023-11-21T10:56:03;100083.00;;;9.91;nan
62800;BME280;48842;51.046;13.796;2023-11-21T10:58:31;100083.00;;;9.90;nan
62800;BME280;48842;51.046;13.796;2023-11-21T11:00:58;100090.84;;;9.88;nan
62800;BME280;48842;51.046;13.796;2023-11-21T11:03:24;100086.47;;;9.81;nan
62800;BME280;48842;51.046;13.796;2023-11-21T11:05:51;100089.97;;;9.75;nan
62800;BME280;48842;51.046;13.796;2023-11-21T11:08:18;100084.72;;;9.75;nan
62800;BME280;48842;51.046;13.796;2023-11-21T11:10:50;100088.19;;;9.74;nan
62800;BME280;48842;51.046;13.796;2023-11-21T11:13:16;100093.44;;;9.76;nan
62800;BME280;48842;51.046;13.796;2023-11-21T11:15:42;100099.50;;;9.70;nan
62800;BME280;48842;51.046;13.796;2023-11-21T11:18:08;100103.00;;;9.72;nan
62800;BME280;48842;51.046;13.796;2023-11-21T11:20:34;100110.88;;;9.80;nan
62800;BME280;48842;51.046;13.796;2023-11-21T11:28:59;100111.81;;;9.94;nan
62800;BME280;48842;51.046;13.796;2023-11-21T11:31:39;100112.66;;;9.96;nan
62800;BME280;48842;51.046;13.796;2023-11-21T11:34:24;100117.03;;;9.98;nan
62800;BME280;48842;51.046;13.796;2023-11-21T11:37:03;100119.59;;;9.85;nan
62800;BME280;48842;51.046;13.796;2023-11-21T11:39:33;100123.91;;;9.72;nan
62800;BME280;48842;51.046;13.796;2023-11-21T11:42:02;100124.75;;;9.64;nan
62800;BME280;48842;51.046;13.796;2023-11-21T11:53:24;100132.50;;;9.39;nan
62800;BME280;48842;51.046;13.796;2023-11-21T11:55:30;100132.44;;;9.33;nan
62800;BME280;48842;51.046;13.796;2023-11-21T11:57:56;100147.25;;;9.31;nan
62800;BME280;48842;51.046;13.796;2023-11-21T12:02:54;100139.41;;;9.24;nan
62800;BME280;48842;51.046;13.796;2023-11-21T12:05:22;100137.63;;;9.23;nan
62800;BME280;48842;51.046;13.796;2023-11-21T12:07:50;100135.00;;;9.22;nan
62800;BME280;48842;51.046;13.796;2023-11-21T12:10:19;100139.38;;;9.21;nan
62800;BME280;48842;51.046;13.796;2023-11-21T12:12:46;100148.94;;;9.22;nan
62800;BME280;48842;51.046;13.796;2023-11-21T12:15:12;100148.94;;;9.21;nan
62800;BME280;48842;51.046;13.796;2023-11-21T12:17:39;100154.16;;;9.19;nan
62800;BME280;48842;51.046;13.796;2023-11-21T12:20:05;100161.16;;;9.22;nan
62800;BME280;48842;51.046;13.796;2023-11-21T12:22:47;100157.69;;;9.26;nan
62800;BME280;48842;51.046;13.796;2023-11-21T12:25:23;100165.47;;;9.18;nan
62800;BME280;48842;51.046;13.796;2023-11-21T12:27:52;100165.41;;;9.09;nan
62800;BME280;48842;51.046;13.796;2023-11-21T12:30:23;100168.84;;;9.02;nan
62800;BME280;48842;51.046;13.796;2023-11-21T12:32:50;100179.22;;;8.93;nan
62800;BME280;48842;51.046;13.796;2023-11-21T12:35:17;100174.88;;;8.93;nan
62800;BME280;48842;51.046;13.796;2023-11-21T12:37:45;100176.66;;;8.97;nan
62800;BME280;48842;51.046;13.796;2023-11-21T12:40:12;100184.47;;;8.96;nan
62800;BME280;48842;51.046;13.796;2023-11-21T12:42:41;100178.41;;;8.98;nan
62800;BME280;48842;51.046;13.796;2023-11-21T12:45:27;100175.78;;;8.95;nan
62800;BME280;48842;51.046;13.796;2023-11-21T12:48:03;100191.38;;;8.90;nan
62800;BME280;48842;51.046;13.796;2023-11-21T12:50:33;100183.59;;;8.95;nan
62800;BME280;48842;51.046;13.796;2023-11-21T12:53:01;100193.19;;;8.98;nan
62800;BME280;48842;51.046;13.796;2023-11-21T12:55:30;100190.63;;;9.02;nan
62800;BME280;48842;51.046;13.796;2023-11-21T12:57:55;100195.88;;;9.05;nan
62800;BME280;48842;51.046;13.796;2023-11-21T13:00:29;100209.78;;;9.04;nan
62800;BME280;48842;51.046;13.796;2023-11-21T13:02:57;100204.56;;;9.03;nan
62800;BME280;48842;51.046;13.796;2023-11-21T13:05:28;100215.84;;;9.00;nan
62800;BME280;48842;51.046;13.796;2023-11-21T13:07:55;100215.00;;;9.00;nan
62800;BME280;48842;51.046;13.796;2023-11-21T13:10:24;100222.78;;;8.94;nan
62800;BME280;48842;51.046;13.796;2023-11-21T13:12:52;100222.78;;;8.94;nan
62800;BME280;48842;51.046;13.796;2023-11-21T13:15:18;100225.31;;;8.86;nan
62800;BME280;48842;51.046;13.796;2023-11-21T13:17:46;100235.69;;;8.80;nan
62800;BME280;48842;51.046;13.796;2023-11-21T13:20:12;100227.78;;;8.69;nan
62800;BME280;48842;51.046;13.796;2023-11-21T13:22:49;100233.81;;;8.63;nan
62800;BME280;48842;51.046;13.796;2023-11-21T13:25:16;100235.53;;;8.63;nan